createdAt,value
2022-08-08T00:02:32.884Z,0.87
2022-08-08T00:05:09.612Z,0.80
2022-08-08T00:07:48.638Z,1.00
2022-08-08T00:10:29.118Z,0.80
2022-08-08T00:13:10.043Z,0.70
2022-08-08T00:15:56.003Z,0.80
2022-08-08T00:19:02.124Z,0.90
2022-08-08T00:21:43.851Z,0.70
2022-08-08T00:24:19.639Z,0.80
2022-08-08T00:27:01.317Z,0.97
2022-08-08T00:29:46.512Z,0.90
2022-08-08T00:32:35.190Z,0.90
2022-08-08T00:35:26.164Z,1.00
2022-08-08T00:38:03.132Z,0.70
2022-08-08T00:41:09.464Z,0.70
2022-08-08T00:44:01.022Z,0.90
2022-08-08T00:46:59.755Z,0.90
2022-08-08T00:49:59.295Z,0.77
2022-08-08T00:52:48.802Z,0.80
2022-08-08T00:55:53.205Z,0.90
2022-08-08T00:58:59.802Z,0.80
2022-08-08T01:01:39.269Z,0.80
2022-08-08T01:04:44.666Z,0.70
2022-08-08T01:07:56.019Z,0.70
2022-08-08T01:10:37.457Z,0.80
2022-08-08T01:13:16.481Z,0.70
2022-08-08T01:16:17.685Z,0.83
2022-08-08T01:19:13.600Z,0.90
2022-08-08T01:22:23.412Z,0.80
2022-08-08T01:25:43.401Z,0.80
2022-08-08T01:28:41.388Z,0.77
2022-08-08T01:32:06.336Z,0.83
2022-08-08T01:35:11.074Z,0.80
2022-08-08T01:38:06.797Z,0.80
2022-08-08T01:41:00.118Z,0.90
2022-08-08T01:43:58.972Z,0.87
2022-08-08T01:46:57.501Z,1.00
2022-08-08T01:49:53.979Z,1.00
2022-08-08T01:53:06.643Z,0.90
2022-08-08T01:56:27.315Z,0.80
2022-08-08T01:58:49.878Z,1.00
2022-08-08T02:02:00.374Z,0.90
2022-08-08T02:05:01.335Z,0.80
2022-08-08T02:07:51.726Z,0.70
2022-08-08T02:10:53.524Z,0.80
2022-08-08T02:13:53.924Z,1.00
2022-08-08T02:16:28.211Z,0.70
2022-08-08T02:19:56.942Z,1.00
2022-08-08T02:22:31.871Z,0.80
2022-08-08T02:25:47.175Z,0.97
2022-08-08T02:28:48.420Z,1.00
2022-08-08T02:31:57.916Z,0.73
2022-08-08T02:35:07.517Z,0.90
2022-08-08T02:38:25.353Z,1.10
2022-08-08T02:41:58.119Z,0.77
2022-08-08T02:44:56.843Z,0.80
2022-08-08T02:47:47.125Z,1.13
2022-08-08T02:50:55.991Z,0.90
2022-08-08T02:53:38.924Z,0.90
2022-08-08T02:56:39.522Z,1.10
2022-08-08T02:59:57.420Z,0.80
2022-08-08T03:02:36.852Z,0.80
2022-08-08T03:05:46.629Z,0.73
2022-08-08T03:08:41.000Z,0.90
2022-08-08T03:12:02.234Z,0.80
2022-08-08T03:15:59.340Z,1.00
2022-08-08T03:18:13.533Z,0.90
2022-08-08T03:20:52.449Z,1.00
2022-08-08T03:23:22.271Z,1.20
2022-08-08T03:25:52.062Z,0.90
2022-08-08T03:28:32.197Z,0.77
2022-08-08T03:31:25.101Z,0.90
2022-08-08T03:33:58.895Z,0.70
2022-08-08T03:36:31.099Z,0.90
2022-08-08T03:39:07.675Z,0.90
2022-08-08T03:42:28.674Z,1.00
2022-08-08T03:44:38.796Z,0.97
2022-08-08T03:47:19.182Z,0.90
2022-08-08T03:50:00.715Z,0.90
2022-08-08T03:52:32.117Z,1.00
2022-08-08T03:55:11.176Z,0.97
2022-08-08T03:58:30.415Z,1.10
2022-08-08T04:01:02.567Z,1.23
2022-08-08T04:04:00.163Z,1.10
2022-08-08T04:06:29.792Z,0.90
2022-08-08T04:09:10.684Z,1.10
2022-08-08T04:11:41.058Z,1.03
2022-08-08T04:14:33.923Z,1.30
2022-08-08T04:17:04.238Z,0.93
2022-08-08T04:19:36.666Z,1.27
2022-08-08T04:22:04.989Z,1.20
2022-08-08T04:24:32.600Z,1.00
2022-08-08T04:27:00.450Z,1.30
2022-08-08T04:29:36.758Z,1.10
2022-08-08T04:32:08.190Z,1.13
2022-08-08T04:34:49.513Z,0.97
2022-08-08T04:37:31.799Z,1.40
2022-08-08T04:40:05.164Z,1.20
2022-08-08T04:42:37.642Z,1.30
2022-08-08T04:45:25.799Z,1.20
2022-08-08T04:47:54.777Z,1.20
2022-08-08T04:50:25.150Z,1.13
2022-08-08T04:53:00.591Z,1.40
2022-08-08T04:55:46.971Z,1.00
2022-08-08T04:58:17.489Z,0.90
2022-08-08T05:00:48.469Z,1.00
2022-08-08T05:03:18.993Z,1.40
2022-08-08T05:06:12.919Z,1.20
2022-08-08T05:08:42.606Z,1.20
2022-08-08T05:11:23.836Z,1.10
2022-08-08T05:14:01.035Z,1.10
2022-08-08T05:16:55.079Z,1.10
2022-08-08T05:20:12.849Z,1.00
2022-08-08T05:22:11.094Z,1.07
2022-08-08T05:24:38.947Z,1.00
2022-08-08T05:27:14.180Z,1.00
2022-08-08T05:29:42.466Z,0.90
2022-08-08T05:32:12.562Z,1.07
2022-08-08T05:34:51.308Z,1.10
2022-08-08T05:37:39.148Z,1.10
2022-08-08T05:40:16.591Z,1.10
2022-08-08T05:42:46.120Z,1.20
2022-08-08T05:45:25.243Z,1.00
2022-08-08T05:48:14.800Z,1.10
2022-08-08T05:51:13.203Z,1.03
2022-08-08T05:54:25.036Z,1.10
2022-08-08T05:56:42.373Z,1.30
2022-08-08T05:59:53.477Z,0.90
2022-08-08T06:02:41.033Z,1.00
2022-08-08T06:05:34.872Z,0.90
2022-08-08T06:08:09.407Z,1.00
2022-08-08T06:10:41.069Z,0.97
2022-08-08T06:13:09.786Z,1.00
2022-08-08T06:15:50.789Z,0.97
2022-08-08T06:18:25.431Z,0.90
2022-08-08T06:20:57.722Z,0.93
2022-08-08T06:23:52.937Z,1.03
2022-08-08T06:26:44.919Z,1.13
2022-08-08T06:29:26.646Z,0.97
2022-08-08T06:32:11.482Z,1.00
2022-08-08T06:34:56.620Z,0.80
2022-08-08T06:37:40.790Z,1.00
2022-08-08T06:40:16.411Z,0.90
2022-08-08T06:42:55.397Z,1.00
2022-08-08T06:45:28.481Z,1.10
2022-08-08T06:48:01.259Z,0.87
2022-08-08T06:50:33.445Z,1.00
2022-08-08T06:53:09.881Z,0.80
2022-08-08T06:55:47.287Z,0.90
2022-08-08T06:58:30.963Z,0.90
2022-08-08T07:02:11.675Z,0.90
2022-08-08T07:04:38.646Z,1.20
2022-08-08T07:07:20.609Z,0.90
2022-08-08T07:09:59.367Z,0.93
2022-08-08T07:12:39.901Z,0.87
2022-08-08T07:15:32.200Z,0.90
2022-08-08T07:18:35.593Z,1.00
2022-08-08T07:21:04.836Z,0.80
2022-08-08T07:24:01.291Z,0.90
2022-08-08T07:26:35.422Z,0.80
2022-08-08T07:29:11.418Z,0.90
2022-08-08T07:31:40.928Z,0.90
2022-08-08T07:34:10.645Z,0.85
2022-08-08T07:36:57.617Z,0.90
2022-08-08T07:39:29.506Z,1.00
2022-08-08T07:42:05.456Z,0.80
2022-08-08T07:44:40.115Z,1.13
2022-08-08T07:47:10.095Z,0.90
2022-08-08T07:49:40.186Z,0.82
2022-08-08T07:52:23.120Z,0.90
2022-08-08T07:55:07.606Z,0.93
2022-08-08T07:57:58.126Z,0.90
2022-08-08T08:00:33.586Z,0.80
2022-08-08T08:03:16.841Z,1.17
2022-08-08T08:05:53.343Z,0.70
2022-08-08T08:08:32.208Z,0.82
2022-08-08T08:11:00.708Z,0.93
2022-08-08T08:14:07.417Z,0.98
2022-08-08T08:16:41.112Z,0.90
2022-08-08T08:19:12.771Z,0.80
2022-08-08T08:21:57.426Z,0.80
2022-08-08T08:24:32.106Z,0.73
2022-08-08T08:27:02.922Z,1.05
2022-08-08T08:29:31.339Z,0.73
2022-08-08T08:32:05.522Z,1.00
2022-08-08T08:34:34.266Z,0.70
2022-08-08T08:37:03.434Z,1.00
2022-08-08T08:39:59.586Z,0.90
2022-08-08T08:42:35.413Z,0.80
2022-08-08T08:45:16.501Z,1.00
2022-08-08T08:47:54.699Z,0.90
2022-08-08T08:50:33.581Z,0.80
2022-08-08T08:53:28.016Z,0.80
2022-08-08T08:56:02.061Z,0.80
2022-08-08T08:58:31.279Z,0.88
2022-08-08T09:01:09.604Z,1.10
2022-08-08T09:03:46.752Z,1.02
2022-08-08T09:06:33.442Z,0.90
2022-08-08T09:09:19.190Z,1.08
2022-08-08T09:12:07.684Z,1.00
2022-08-08T09:14:42.260Z,0.90
2022-08-08T09:17:17.391Z,1.02
2022-08-08T09:21:57.978Z,1.10
2022-08-08T09:22:39.584Z,0.80
2022-08-08T09:25:09.720Z,0.80
2022-08-08T09:27:42.075Z,0.90
2022-08-08T09:30:38.121Z,0.90
2022-08-08T09:34:30.473Z,0.90
2022-08-08T09:36:02.052Z,0.80
2022-08-08T09:38:52.995Z,0.90
2022-08-08T09:42:14.661Z,1.02
2022-08-08T09:44:45.593Z,0.82
2022-08-08T09:47:26.525Z,1.00
2022-08-08T09:50:13.654Z,1.02
2022-08-08T09:52:56.417Z,0.90
2022-08-08T09:55:51.936Z,0.80
2022-08-08T09:58:27.973Z,0.90
2022-08-08T10:01:14.897Z,1.00
2022-08-08T10:03:56.301Z,0.82
2022-08-08T10:06:29.201Z,0.77
2022-08-08T10:08:57.511Z,0.82
2022-08-08T10:12:26.664Z,0.90
2022-08-08T10:14:28.357Z,0.80
2022-08-08T10:17:56.582Z,0.80
2022-08-08T10:19:59.889Z,0.60
2022-08-08T10:22:29.117Z,0.60
2022-08-08T10:25:07.151Z,0.93
2022-08-08T10:27:46.470Z,0.80
2022-08-08T10:30:57.315Z,0.70
2022-08-08T10:33:12.164Z,0.70
2022-08-08T10:36:19.937Z,0.80
2022-08-08T10:38:34.801Z,0.90
2022-08-08T10:41:05.799Z,1.08
2022-08-08T10:43:43.098Z,0.63
2022-08-08T10:46:32.090Z,0.80
2022-08-08T10:48:59.827Z,0.68
2022-08-08T10:51:47.554Z,0.70
2022-08-08T10:54:25.292Z,0.80
2022-08-08T10:56:59.086Z,0.82
2022-08-08T10:59:30.879Z,0.70
2022-08-08T11:01:59.727Z,0.70
2022-08-08T11:04:38.576Z,1.20
2022-08-08T11:07:39.213Z,0.93
2022-08-08T11:10:19.865Z,0.93
2022-08-08T11:13:28.450Z,0.80
2022-08-08T11:16:01.512Z,0.93
2022-08-08T11:18:39.990Z,0.70
2022-08-08T11:21:09.030Z,0.70
2022-08-08T11:23:41.919Z,0.70
2022-08-08T11:26:18.718Z,1.00
2022-08-08T11:28:50.112Z,0.88
2022-08-08T11:31:23.165Z,1.40
2022-08-08T11:34:02.888Z,0.88
2022-08-08T11:36:33.361Z,0.90
2022-08-08T11:39:06.085Z,0.95
2022-08-08T11:41:43.187Z,1.00
2022-08-08T11:44:13.423Z,1.00
2022-08-08T11:46:42.212Z,0.80
2022-08-08T11:49:14.591Z,0.98
2022-08-08T11:51:50.668Z,1.00
2022-08-08T11:54:44.641Z,0.80
2022-08-08T11:57:23.701Z,0.90
2022-08-08T12:00:05.993Z,1.00
2022-08-08T12:02:51.351Z,1.00
2022-08-08T12:05:30.939Z,1.70
2022-08-08T12:08:01.805Z,0.90
2022-08-08T12:10:30.704Z,1.10
2022-08-08T12:13:05.280Z,0.98
2022-08-08T12:15:42.351Z,1.50
2022-08-08T12:18:16.110Z,1.10
2022-08-08T12:20:58.800Z,1.00
2022-08-08T12:23:42.845Z,1.10
2022-08-08T12:26:28.459Z,1.00
2022-08-08T12:29:36.163Z,1.17
2022-08-08T12:32:13.195Z,1.00
2022-08-08T12:34:45.127Z,1.10
2022-08-08T12:37:40.241Z,1.00
2022-08-08T12:40:22.752Z,0.80
2022-08-08T12:42:52.944Z,1.00
2022-08-08T12:45:58.246Z,1.08
2022-08-08T12:48:38.095Z,1.10
2022-08-08T12:51:11.205Z,1.00
2022-08-08T12:53:58.914Z,1.23
2022-08-08T12:56:40.394Z,0.90
2022-08-08T12:59:20.573Z,0.98
2022-08-08T13:02:06.900Z,0.90
2022-08-08T13:04:35.341Z,1.02
2022-08-08T13:07:11.896Z,0.90
2022-08-08T13:10:05.231Z,0.90
2022-08-08T13:12:47.202Z,1.13
2022-08-08T13:15:19.432Z,1.02
2022-08-08T13:18:07.680Z,1.10
2022-08-08T13:20:48.875Z,0.95
2022-08-08T13:23:36.050Z,1.45
2022-08-08T13:26:13.318Z,1.00
2022-08-08T13:28:45.820Z,1.20
2022-08-08T13:31:17.187Z,1.10
2022-08-08T13:33:49.672Z,1.08
2022-08-08T13:36:26.361Z,1.30
2022-08-08T13:39:00.117Z,1.25
2022-08-08T13:41:39.407Z,0.80
2022-08-08T13:44:13.279Z,1.00
2022-08-08T13:46:58.969Z,1.10
2022-08-08T13:50:35.237Z,1.17
2022-08-08T13:52:35.968Z,0.90
2022-08-08T13:55:06.601Z,1.00
2022-08-08T13:58:06.290Z,1.00
2022-08-08T14:00:24.406Z,1.00
2022-08-08T14:02:59.620Z,1.05
2022-08-08T14:05:29.510Z,1.00
2022-08-08T14:08:16.448Z,1.00
2022-08-08T14:10:45.657Z,0.90
2022-08-08T14:13:20.883Z,1.13
2022-08-08T14:16:08.003Z,1.00
2022-08-08T14:18:58.051Z,1.05
2022-08-08T14:21:48.948Z,0.93
2022-08-08T14:24:33.850Z,0.95
2022-08-08T14:27:07.779Z,1.00
2022-08-08T14:29:39.458Z,1.00
2022-08-08T14:32:26.351Z,1.00
2022-08-08T14:35:05.676Z,1.15
2022-08-08T14:37:43.036Z,1.00
2022-08-08T14:40:32.834Z,1.10
2022-08-08T14:43:01.780Z,1.40
2022-08-08T14:46:07.267Z,0.90
2022-08-08T14:48:52.489Z,1.00
2022-08-08T14:51:31.173Z,0.95
2022-08-08T14:54:28.466Z,1.08
2022-08-08T14:56:58.350Z,0.80
2022-08-08T14:59:39.843Z,0.90
2022-08-08T15:02:30.730Z,1.20
2022-08-08T15:05:15.433Z,1.00
2022-08-08T15:07:43.712Z,0.98
2022-08-08T15:10:22.804Z,1.20
2022-08-08T15:12:56.907Z,1.10
2022-08-08T15:16:01.283Z,0.80
2022-08-08T15:18:20.465Z,1.15
2022-08-08T15:20:51.301Z,1.05
2022-08-08T15:23:21.558Z,0.90
2022-08-08T15:25:53.606Z,1.00
2022-08-08T15:28:33.429Z,1.17
2022-08-08T15:31:02.036Z,1.00
2022-08-08T15:33:59.010Z,0.95
2022-08-08T15:36:31.351Z,1.13
2022-08-08T15:39:02.037Z,0.90
2022-08-08T15:41:37.004Z,1.10
2022-08-08T15:44:13.643Z,0.90
2022-08-08T15:46:45.406Z,0.93
2022-08-08T15:49:21.218Z,1.42
2022-08-08T15:51:54.691Z,1.30
2022-08-08T15:54:38.795Z,0.90
2022-08-08T15:57:10.602Z,1.30
2022-08-08T16:00:06.907Z,1.13
2022-08-08T16:02:30.989Z,1.00
2022-08-08T16:05:00.640Z,1.00
2022-08-08T16:07:39.637Z,1.20
2022-08-08T16:13:02.008Z,1.10
2022-08-08T16:13:29.270Z,1.20
2022-08-08T16:15:58.703Z,1.10
2022-08-08T16:18:28.537Z,0.93
2022-08-08T16:21:00.568Z,0.98
2022-08-08T16:23:32.672Z,0.93
2022-08-08T16:26:04.340Z,1.30
2022-08-08T16:28:35.275Z,1.08
2022-08-08T16:31:07.505Z,1.08
2022-08-08T16:33:38.855Z,1.40
2022-08-08T16:36:09.869Z,1.00
2022-08-08T16:38:47.157Z,1.40
2022-08-08T16:41:20.679Z,1.08
2022-08-08T16:43:51.195Z,1.17
2022-08-08T16:46:43.089Z,1.00
2022-08-08T16:49:09.111Z,0.98
2022-08-08T16:55:00.263Z,1.17
2022-08-08T16:55:04.270Z,1.20
2022-08-08T16:58:13.410Z,1.00
2022-08-08T17:00:08.822Z,1.20
2022-08-08T17:02:39.622Z,0.98
2022-08-08T17:05:13.936Z,1.30
2022-08-08T17:07:42.270Z,1.10
2022-08-08T17:10:11.650Z,1.27
2022-08-08T17:12:52.676Z,1.20
2022-08-08T17:15:23.135Z,1.00
2022-08-08T17:18:03.742Z,1.25
2022-08-08T17:20:39.640Z,1.10
2022-08-08T17:23:17.855Z,1.65
2022-08-08T17:25:58.427Z,1.27
2022-08-08T17:28:35.690Z,1.30
2022-08-08T17:31:11.913Z,1.50
2022-08-08T17:34:48.384Z,1.55
2022-08-08T17:37:00.507Z,1.30
2022-08-08T17:40:05.105Z,1.05
2022-08-08T17:42:20.065Z,1.05
2022-08-08T17:44:52.902Z,1.30
2022-08-08T17:47:24.173Z,0.93
2022-08-08T17:50:01.486Z,1.02
2022-08-08T17:52:34.048Z,0.90
2022-08-08T17:55:05.229Z,1.10
2022-08-08T17:57:37.317Z,1.00
2022-08-08T18:00:13.235Z,0.90
2022-08-08T18:02:58.109Z,1.08
2022-08-08T18:05:48.696Z,0.90
2022-08-08T18:08:24.915Z,0.80
2022-08-08T18:11:16.865Z,0.93
2022-08-08T18:13:48.986Z,0.75
2022-08-08T18:16:23.078Z,0.88
2022-08-08T18:18:56.531Z,0.80
2022-08-08T18:21:58.893Z,1.00
2022-08-08T18:24:21.621Z,0.82
2022-08-08T18:26:54.889Z,0.90
2022-08-08T18:29:35.685Z,0.80
2022-08-08T18:32:08.577Z,1.30
2022-08-08T18:34:40.383Z,1.10
2022-08-08T18:37:33.784Z,0.98
2022-08-08T18:39:58.730Z,0.85
2022-08-08T18:42:26.602Z,1.00
2022-08-08T18:44:55.546Z,1.05
2022-08-08T18:47:28.114Z,1.40
2022-08-08T18:49:59.982Z,1.10
2022-08-08T18:52:36.773Z,1.25
2022-08-08T18:55:09.510Z,1.00
2022-08-08T18:57:43.509Z,1.25
2022-08-08T19:00:20.349Z,1.20
2022-08-08T19:02:55.474Z,1.10
2022-08-08T19:05:34.171Z,1.00
2022-08-08T19:08:29.692Z,1.20
2022-08-08T19:11:01.869Z,1.20
2022-08-08T19:13:47.303Z,1.23
2022-08-08T19:16:28.386Z,0.90
2022-08-08T19:19:02.603Z,1.00
2022-08-08T19:21:33.012Z,1.20
2022-08-08T19:24:05.665Z,1.50
2022-08-08T19:26:37.550Z,0.95
2022-08-08T19:29:09.056Z,1.05
2022-08-08T19:38:51.487Z,1.17
2022-08-08T19:41:21.629Z,1.27
2022-08-08T19:44:02.628Z,1.40
2022-08-08T19:46:33.224Z,1.17
2022-08-08T19:49:03.025Z,1.60
2022-08-08T19:51:34.553Z,1.48
2022-08-08T19:54:09.420Z,1.20
2022-08-08T19:56:48.596Z,1.50
2022-08-08T19:59:22.260Z,1.48
2022-08-08T20:02:03.576Z,1.50
2022-08-08T20:04:33.708Z,1.50
2022-08-08T20:07:05.045Z,1.45
2022-08-08T20:09:55.649Z,1.60
2022-08-08T20:12:35.563Z,1.70
2022-08-08T20:15:14.692Z,1.80
2022-08-08T20:17:47.964Z,1.52
2022-08-08T20:20:20.611Z,1.60
2022-08-08T20:22:54.304Z,1.52
2022-08-08T20:25:26.478Z,1.92
2022-08-08T20:28:04.829Z,1.63
2022-08-08T20:30:53.614Z,2.10
2022-08-08T20:35:58.535Z,1.70
2022-08-08T20:38:33.007Z,2.03
2022-08-08T20:41:16.982Z,2.15
2022-08-08T20:43:48.094Z,1.95
2022-08-08T20:46:20.833Z,2.08
2022-08-08T20:48:51.352Z,1.88
2022-08-08T20:51:23.256Z,2.08
2022-08-08T20:54:00.826Z,2.10
2022-08-08T20:56:35.930Z,2.40
2022-08-08T20:59:06.349Z,2.20
2022-08-08T21:02:06.508Z,2.15
2022-08-08T21:04:27.344Z,2.28
2022-08-08T21:06:56.138Z,2.10
2022-08-08T21:09:24.262Z,2.00
2022-08-08T21:12:03.245Z,2.17
2022-08-08T21:14:34.640Z,2.25
2022-08-08T21:17:06.746Z,2.50
2022-08-08T21:19:45.687Z,2.47
2022-08-08T21:22:15.511Z,2.30
2022-08-08T21:24:53.462Z,2.25
2022-08-08T21:28:06.639Z,2.15
2022-08-08T21:30:18.941Z,2.33
2022-08-08T21:32:52.204Z,2.33
2022-08-08T21:36:18.624Z,2.40
2022-08-08T21:38:16.391Z,2.28
2022-08-08T21:40:54.653Z,2.20
2022-08-08T21:43:32.869Z,2.35
2022-08-08T21:48:04.713Z,2.40
2022-08-08T21:48:55.606Z,2.80
2022-08-08T21:54:30.824Z,2.17
2022-08-08T21:54:32.399Z,2.20
2022-08-08T21:57:04.609Z,2.20
2022-08-08T22:00:01.904Z,2.38
2022-08-08T22:02:23.971Z,2.25
2022-08-08T22:04:55.994Z,2.20
2022-08-08T22:07:39.553Z,2.08
2022-08-08T22:10:28.241Z,2.00
2022-08-08T22:13:17.121Z,2.10
2022-08-08T22:15:58.760Z,1.80
2022-08-08T22:18:33.225Z,2.15
2022-08-08T22:21:14.648Z,2.30
2022-08-08T22:23:50.657Z,1.88
2022-08-08T22:26:29.039Z,1.80
2022-08-08T22:29:12.883Z,2.25
2022-08-08T22:32:01.973Z,2.00
2022-08-08T22:34:32.581Z,1.95
2022-08-08T22:37:00.610Z,1.83
2022-08-08T22:39:45.844Z,2.00
2022-08-08T22:42:14.674Z,2.00
2022-08-08T22:44:56.064Z,1.73
2022-08-08T22:47:24.094Z,1.73
2022-08-08T22:50:02.264Z,2.00
2022-08-08T22:52:33.692Z,2.10
2022-08-08T22:55:05.953Z,1.90
2022-08-08T22:57:43.872Z,1.80
2022-08-08T23:00:17.942Z,1.70
2022-08-08T23:02:50.222Z,2.10
2022-08-08T23:05:21.424Z,1.90
2022-08-08T23:07:56.864Z,1.77
2022-08-08T23:10:26.904Z,1.85
2022-08-08T23:12:56.148Z,1.92
2022-08-08T23:16:41.764Z,1.90
2022-08-08T23:18:12.560Z,1.80
2022-08-08T23:20:43.511Z,2.10
2022-08-08T23:23:12.398Z,2.10
2022-08-08T23:25:48.409Z,2.20
2022-08-08T23:28:18.598Z,2.30
2022-08-08T23:30:47.549Z,1.98
2022-08-08T23:33:21.279Z,2.03
2022-08-08T23:36:08.255Z,1.67
2022-08-08T23:38:41.877Z,1.95
2022-08-08T23:41:23.002Z,1.90
2022-08-08T23:43:56.820Z,1.80
2022-08-08T23:49:04.618Z,2.03
2022-08-08T23:49:15.329Z,1.73
2022-08-08T23:52:04.531Z,1.90
2022-08-08T23:54:42.478Z,2.08
2022-08-08T23:57:26.373Z,1.95
